createdAt,value
2018-07-11T00:58:33.729Z,26.50
2018-07-11T01:01:16.155Z,25.43
2018-07-11T01:03:49.482Z,25.43
2018-07-11T01:06:20.095Z,23.63
2018-07-11T01:08:53.232Z,24.03
2018-07-11T01:11:24.388Z,26.00
2018-07-11T01:13:53.322Z,24.27
2018-07-11T01:16:23.286Z,24.73
2018-07-11T01:19:00.773Z,26.10
2018-07-11T01:21:29.995Z,26.43
2018-07-11T01:23:58.664Z,25.43
2018-07-11T01:26:38.160Z,24.70
2018-07-11T01:29:07.070Z,26.13
2018-07-11T01:31:35.895Z,23.47
2018-07-11T01:34:05.449Z,25.87
2018-07-11T01:36:34.909Z,26.13
2018-07-11T01:39:04.872Z,24.63
2018-07-11T01:41:33.711Z,23.90
2018-07-11T01:44:02.169Z,25.73
2018-07-11T01:46:50.030Z,25.10
2018-07-11T01:49:19.357Z,26.03
2018-07-11T01:51:59.344Z,26.97
2018-07-11T01:54:29.280Z,27.43
2018-07-11T01:56:57.492Z,26.97
2018-07-11T01:59:28.879Z,25.47
2018-07-11T02:01:58.295Z,25.30
2018-07-11T02:04:27.420Z,25.07
2018-07-11T02:06:56.196Z,31.73
2018-07-11T02:09:24.438Z,26.33
2018-07-11T02:11:53.312Z,27.27
2018-07-11T02:14:21.818Z,25.77
2018-07-11T02:16:51.579Z,25.20
2018-07-11T02:19:21.431Z,24.67
2018-07-11T02:21:50.737Z,30.93
2018-07-11T02:24:20.975Z,26.80
2018-07-11T02:26:49.639Z,27.57
2018-07-11T02:29:18.067Z,28.07
2018-07-11T02:31:46.555Z,27.70
2018-07-11T02:34:16.369Z,27.07
2018-07-11T02:36:45.049Z,27.77
2018-07-11T02:39:13.978Z,24.90
2018-07-11T02:41:42.771Z,25.57
2018-07-11T02:44:11.218Z,27.27
2018-07-11T02:46:46.140Z,26.03
2018-07-11T02:49:15.042Z,26.50
2018-07-11T02:51:44.019Z,28.70
2018-07-11T02:54:12.543Z,27.40
2018-07-11T02:56:41.220Z,29.00
2018-07-11T02:59:09.623Z,27.33
2018-07-11T03:01:38.572Z,28.23
2018-07-11T03:04:07.213Z,28.93
2018-07-11T03:06:36.160Z,27.93
2018-07-11T03:09:05.242Z,29.10
2018-07-11T03:11:33.676Z,28.37
2018-07-11T03:14:02.411Z,28.07
2018-07-11T03:16:31.543Z,28.57
2018-07-11T03:19:00.903Z,27.43
2018-07-11T03:21:30.461Z,33.57
2018-07-11T03:23:59.812Z,26.53
2018-07-11T03:26:28.500Z,26.43
2018-07-11T03:28:56.980Z,28.80
2018-07-11T03:31:26.140Z,28.03
2018-07-11T03:33:54.551Z,29.20
2018-07-11T03:36:23.037Z,28.33
2018-07-11T03:38:51.684Z,28.63
2018-07-11T03:41:20.414Z,30.10
2018-07-11T03:43:48.831Z,29.90
2018-07-11T03:46:17.305Z,28.60
2018-07-11T03:48:46.309Z,28.63
2018-07-11T03:51:15.516Z,29.07
2018-07-11T03:53:44.110Z,30.40
2018-07-11T03:56:12.500Z,29.13
2018-07-11T03:58:41.493Z,28.40
2018-07-11T04:01:09.892Z,27.80
2018-07-11T04:03:38.511Z,27.27
2018-07-11T04:06:06.966Z,26.87
2018-07-11T04:08:36.022Z,27.47
2018-07-11T04:11:04.763Z,26.30
2018-07-11T04:13:33.205Z,27.63
2018-07-11T04:16:03.078Z,28.13
2018-07-11T04:18:32.072Z,27.03
2018-07-11T04:21:01.724Z,25.80
2018-07-11T04:23:30.372Z,27.30
2018-07-11T04:25:58.945Z,26.43
2018-07-11T04:28:28.766Z,27.37
2018-07-11T04:30:59.031Z,31.77
2018-07-11T04:33:27.526Z,27.03
2018-07-11T04:35:57.346Z,25.87
2018-07-11T04:38:26.726Z,24.93
2018-07-11T04:40:55.219Z,24.63
2018-07-11T04:43:26.476Z,24.10
2018-07-11T04:45:55.341Z,25.00
2018-07-11T04:48:23.949Z,29.63
2018-07-11T04:50:53.216Z,24.90
2018-07-11T04:53:27.957Z,23.73
2018-07-11T04:56:01.364Z,22.57
2018-07-11T04:58:31.299Z,19.90
2018-07-11T05:01:00.424Z,23.83
2018-07-11T05:03:29.629Z,21.73
2018-07-11T05:05:58.062Z,19.63
2018-07-11T05:08:27.053Z,18.97
2018-07-11T05:10:55.702Z,21.37
2018-07-11T05:13:24.896Z,20.27
2018-07-11T05:15:53.333Z,20.00
2018-07-11T05:18:22.550Z,20.03
2018-07-11T05:20:51.258Z,19.30
2018-07-11T05:23:19.832Z,18.27
2018-07-11T05:25:48.260Z,14.80
2018-07-11T05:28:17.259Z,15.27
2018-07-11T05:30:45.877Z,16.07
2018-07-11T05:33:14.816Z,12.50
2018-07-11T05:35:43.697Z,12.83
2018-07-11T05:38:12.141Z,15.80
2018-07-11T05:40:41.108Z,12.60
2018-07-11T05:43:10.439Z,12.70
2018-07-11T05:45:39.140Z,12.80
2018-07-11T05:48:08.065Z,12.53
2018-07-11T05:50:36.687Z,11.23
2018-07-11T05:53:05.187Z,10.13
2018-07-11T05:55:34.140Z,10.33
2018-07-11T05:58:03.304Z,8.60
2018-07-11T06:00:31.936Z,8.10
2018-07-11T06:03:00.936Z,7.50
2018-07-11T06:05:32.963Z,8.03
2018-07-11T06:08:03.152Z,7.67
2018-07-11T06:10:31.623Z,7.13
2018-07-11T06:13:00.055Z,7.27
2018-07-11T06:15:29.313Z,5.60
2018-07-11T06:17:57.929Z,4.97
2018-07-11T06:20:26.644Z,4.70
2018-07-11T06:22:55.278Z,4.67
2018-07-11T06:25:24.352Z,4.00
2018-07-11T06:27:53.387Z,3.97
2018-07-11T06:30:22.000Z,4.10
2018-07-11T06:32:50.667Z,4.57
2018-07-11T06:35:19.342Z,4.17
2018-07-11T06:37:48.228Z,4.50
2018-07-11T06:40:16.629Z,4.27
2018-07-11T06:42:45.360Z,4.43
2018-07-11T06:45:15.580Z,4.57
2018-07-11T06:47:44.117Z,4.40
2018-07-11T06:50:12.596Z,4.47
2018-07-11T06:52:41.194Z,4.23
2018-07-11T06:55:10.040Z,4.17
2018-07-11T06:57:38.508Z,4.63
2018-07-11T07:00:07.067Z,4.70
2018-07-11T07:02:35.511Z,3.37
2018-07-11T07:05:04.365Z,3.47
2018-07-11T07:07:33.540Z,3.30
2018-07-11T07:10:02.654Z,3.23
2018-07-11T07:12:32.078Z,3.17
2018-07-11T07:15:01.057Z,3.23
2018-07-11T07:17:29.853Z,3.20
2018-07-11T07:19:59.249Z,3.27
2018-07-11T07:22:29.185Z,3.20
2018-07-11T07:24:57.595Z,2.97
2018-07-11T07:27:26.578Z,3.40
2018-07-11T07:29:55.501Z,3.30
2018-07-11T07:32:23.921Z,3.07
2018-07-11T07:34:52.876Z,3.20
2018-07-11T07:37:21.801Z,3.10
2018-07-11T07:39:50.285Z,3.40
2018-07-11T07:42:19.148Z,2.97
2018-07-11T07:44:48.365Z,2.97
2018-07-11T07:47:22.106Z,3.20
2018-07-11T07:49:51.673Z,3.47
2018-07-11T07:52:20.577Z,3.43
2018-07-11T07:54:49.687Z,3.70
2018-07-11T07:57:18.297Z,3.37
2018-07-11T07:59:47.349Z,3.33
2018-07-11T08:02:16.377Z,3.30
2018-07-11T08:04:46.228Z,3.83
2018-07-11T08:07:15.529Z,3.30
2018-07-11T08:09:44.174Z,3.10
2018-07-11T08:12:12.847Z,3.13
2018-07-11T08:14:41.996Z,3.60
2018-07-11T08:17:11.104Z,3.53
2018-07-11T08:19:40.608Z,3.90
2018-07-11T08:22:20.733Z,3.80
2018-07-11T08:25:01.106Z,4.07
2018-07-11T08:30:17.220Z,3.50
2018-07-11T08:32:56.495Z,3.23
2018-07-11T08:35:54.177Z,3.27
2018-07-11T08:38:34.281Z,3.43
2018-07-11T08:41:15.301Z,3.00
2018-07-11T08:44:44.564Z,3.13
2018-07-11T08:47:27.255Z,2.67
2018-07-11T08:52:14.338Z,2.70
2018-07-11T08:56:57.909Z,2.90
2018-07-11T08:59:37.484Z,3.37
2018-07-11T09:02:18.952Z,3.43
2018-07-11T09:07:05.166Z,3.30
2018-07-11T09:11:51.221Z,3.40
2018-07-11T09:14:29.076Z,3.10
2018-07-11T09:19:12.415Z,3.33
2018-07-11T09:23:58.216Z,3.53
2018-07-11T09:26:28.594Z,3.90
2018-07-11T09:28:57.119Z,3.97
2018-07-11T09:31:26.561Z,4.10
2018-07-11T09:33:55.446Z,4.40
2018-07-11T09:36:24.072Z,3.90
2018-07-11T09:38:53.870Z,4.23
2018-07-11T09:41:22.602Z,4.10
2018-07-11T09:43:51.435Z,4.27
2018-07-11T09:49:13.771Z,4.43
2018-07-11T09:51:42.659Z,4.00
2018-07-11T09:54:11.519Z,3.50
2018-07-11T09:56:40.497Z,2.73
2018-07-11T09:59:09.136Z,2.57
2018-07-11T10:01:40.457Z,2.90
2018-07-11T10:04:09.200Z,3.10
2018-07-11T10:06:37.921Z,3.37
2018-07-11T10:09:06.388Z,3.50
2018-07-11T10:11:34.976Z,3.73
2018-07-11T10:14:04.492Z,3.67
2018-07-11T10:16:34.173Z,3.50
2018-07-11T10:19:03.798Z,4.00
2018-07-11T10:21:33.521Z,4.00
2018-07-11T10:24:03.265Z,3.43
2018-07-11T10:26:32.759Z,4.30
2018-07-11T10:29:01.590Z,3.50
2018-07-11T10:31:30.955Z,3.47
2018-07-11T10:33:59.727Z,4.03
2018-07-11T10:36:28.448Z,3.90
2018-07-11T10:38:58.318Z,4.17
2018-07-11T10:41:27.835Z,4.17
2018-07-11T10:43:56.475Z,4.20
2018-07-11T10:46:25.083Z,4.00
2018-07-11T10:48:54.427Z,3.87
2018-07-11T10:51:23.177Z,3.80
2018-07-11T10:53:52.326Z,3.83
2018-07-11T10:56:20.725Z,3.97
2018-07-11T10:58:49.174Z,3.83
2018-07-11T11:01:18.362Z,4.17
2018-07-11T11:03:47.240Z,4.47
2018-07-11T11:06:16.120Z,4.03
2018-07-11T11:08:45.454Z,4.80
2018-07-11T11:11:14.152Z,4.70
2018-07-11T11:13:42.610Z,4.57
2018-07-11T11:16:12.126Z,4.87
2018-07-11T11:18:40.522Z,4.83
2018-07-11T11:21:09.198Z,4.40
2018-07-11T11:23:38.889Z,4.63
2018-07-11T11:26:07.886Z,5.33
2018-07-11T11:28:36.336Z,4.70
2018-07-11T11:31:05.255Z,5.37
2018-07-11T11:33:34.741Z,4.77
2018-07-11T11:36:03.667Z,4.90
2018-07-11T11:38:32.571Z,5.30
2018-07-11T11:41:01.518Z,5.13
2018-07-11T11:43:30.092Z,4.93
2018-07-11T11:45:58.480Z,4.90
2018-07-11T11:48:27.255Z,5.10
2018-07-11T11:50:55.940Z,5.20
2018-07-11T11:53:24.439Z,5.30
2018-07-11T11:55:54.674Z,5.23
2018-07-11T11:58:25.105Z,5.80
2018-07-11T12:00:53.654Z,5.17
2018-07-11T12:03:23.075Z,5.43
2018-07-11T12:05:51.555Z,4.80
2018-07-11T12:08:23.298Z,4.87
2018-07-11T12:10:52.077Z,5.30
2018-07-11T12:13:20.708Z,4.83
2018-07-11T12:15:50.375Z,4.90
2018-07-11T12:18:20.545Z,4.90
2018-07-11T12:20:49.098Z,4.10
2018-07-11T12:23:17.801Z,4.60
2018-07-11T12:26:24.477Z,5.10
2018-07-11T12:28:53.419Z,5.20
2018-07-11T12:31:22.678Z,5.20
2018-07-11T12:33:52.031Z,6.37
2018-07-11T12:36:21.484Z,5.60
2018-07-11T12:38:54.124Z,5.03
2018-07-11T12:41:24.150Z,4.97
2018-07-11T12:43:52.997Z,4.60
2018-07-11T12:46:22.253Z,3.93
2018-07-11T12:48:56.287Z,5.03
2018-07-11T12:51:25.361Z,4.30
2018-07-11T12:53:53.907Z,4.30
2018-07-11T12:56:22.689Z,4.70
2018-07-11T12:58:51.734Z,5.00
2018-07-11T13:01:20.840Z,4.87
2018-07-11T13:03:50.089Z,4.47
2018-07-11T13:06:18.751Z,4.50
2018-07-11T13:08:47.781Z,5.07
2018-07-11T13:11:16.289Z,5.10
2018-07-11T13:13:44.970Z,5.17
2018-07-11T13:16:16.595Z,5.20
2018-07-11T13:18:45.436Z,5.50
2018-07-11T13:21:14.039Z,4.73
2018-07-11T13:23:42.657Z,5.70
2018-07-11T13:26:11.471Z,6.00
2018-07-11T13:28:40.451Z,5.30
2018-07-11T13:31:09.161Z,5.40
2018-07-11T13:33:38.199Z,5.60
2018-07-11T13:36:06.908Z,5.47
2018-07-11T13:38:35.998Z,5.17
2018-07-11T13:41:04.376Z,5.27
2018-07-11T13:43:32.916Z,5.37
2018-07-11T13:46:01.476Z,5.20
2018-07-11T13:48:31.682Z,6.10
2018-07-11T13:51:00.180Z,5.90
2018-07-11T13:53:28.799Z,5.40
2018-07-11T13:55:57.597Z,6.47
2018-07-11T13:58:26.119Z,5.63
2018-07-11T14:00:55.031Z,5.93
2018-07-11T14:03:23.694Z,6.23
2018-07-11T14:05:52.229Z,5.93
2018-07-11T14:08:21.004Z,5.60
2018-07-11T14:10:52.719Z,5.50
2018-07-11T14:13:21.487Z,7.43
2018-07-11T14:15:50.908Z,6.53
2018-07-11T14:18:19.468Z,6.00
2018-07-11T14:20:48.475Z,6.80
2018-07-11T14:23:27.211Z,7.00
2018-07-11T14:25:56.300Z,5.83
2018-07-11T14:28:24.834Z,6.87
2018-07-11T14:30:53.708Z,5.87
2018-07-11T14:33:24.140Z,6.10
2018-07-11T14:35:53.696Z,6.40
2018-07-11T14:38:22.689Z,6.50
2018-07-11T14:40:51.364Z,7.30
2018-07-11T14:43:20.538Z,6.63
2018-07-11T14:45:49.793Z,7.67
2018-07-11T14:48:18.423Z,7.30
2018-07-11T14:50:47.445Z,7.40
2018-07-11T14:53:16.763Z,7.00
2018-07-11T14:55:45.263Z,7.70
2018-07-11T14:58:13.942Z,6.90
2018-07-11T15:00:42.897Z,7.70
2018-07-11T15:03:11.816Z,6.90
2018-07-11T15:05:41.037Z,8.07
2018-07-11T15:08:09.778Z,7.63
2018-07-11T15:10:38.922Z,7.60
2018-07-11T15:13:07.527Z,6.30
2018-07-11T15:15:37.236Z,7.23
2018-07-11T15:18:05.847Z,6.73
2018-07-11T15:20:34.632Z,6.70
2018-07-11T15:23:03.950Z,7.40
2018-07-11T15:25:32.738Z,6.60
2018-07-11T15:28:02.044Z,7.47
2018-07-11T15:30:30.737Z,7.97
2018-07-11T15:32:59.899Z,8.17
2018-07-11T15:35:28.500Z,7.30
2018-07-11T15:37:57.995Z,6.00
2018-07-11T15:40:26.140Z,6.83
2018-07-11T15:42:54.723Z,6.60
2018-07-11T15:45:23.703Z,6.53
2018-07-11T15:47:52.473Z,5.80
2018-07-11T15:50:20.940Z,6.67
2018-07-11T15:52:50.333Z,6.37
2018-07-11T15:55:18.815Z,6.63
2018-07-11T15:57:53.484Z,6.73
2018-07-11T16:00:30.632Z,6.53
2018-07-11T16:03:03.116Z,6.40
2018-07-11T16:05:32.094Z,6.30
2018-07-11T16:08:04.347Z,6.10
2018-07-11T16:10:47.540Z,5.90
2018-07-11T16:13:16.455Z,5.23
2018-07-11T16:15:45.676Z,6.10
2018-07-11T16:18:14.615Z,5.63
2018-07-11T16:20:43.400Z,5.47
2018-07-11T16:23:12.421Z,6.07
2018-07-11T16:25:42.532Z,6.50
2018-07-11T16:28:11.740Z,5.80
2018-07-11T16:30:40.356Z,5.77
2018-07-11T16:33:09.601Z,5.67
2018-07-11T16:35:38.225Z,5.93
2018-07-11T16:38:06.872Z,5.97
2018-07-11T16:40:37.036Z,5.77
2018-07-11T16:43:06.115Z,5.80
2018-07-11T16:45:34.794Z,5.50
2018-07-11T16:48:03.594Z,6.60
2018-07-11T16:50:32.599Z,6.13
2018-07-11T16:53:01.530Z,6.00
2018-07-11T16:55:32.536Z,6.07
2018-07-11T16:58:01.138Z,6.37
2018-07-11T17:00:32.541Z,6.23
2018-07-11T17:03:05.489Z,6.40
2018-07-11T17:05:42.043Z,5.53
2018-07-11T17:08:14.043Z,6.27
2018-07-11T17:10:43.194Z,5.97
2018-07-11T17:13:23.213Z,5.33
2018-07-11T17:15:53.681Z,6.40
2018-07-11T17:18:29.706Z,6.83
2018-07-11T17:21:01.994Z,6.80
2018-07-11T17:23:35.801Z,6.13
2018-07-11T17:26:05.822Z,5.70
2018-07-11T17:28:34.487Z,6.43
2018-07-11T17:31:03.508Z,5.97
2018-07-11T17:33:32.263Z,5.97
2018-07-11T17:36:00.858Z,5.87
2018-07-11T17:38:31.004Z,5.70
2018-07-11T17:41:02.421Z,6.20
2018-07-11T17:43:35.842Z,5.57
2018-07-11T17:46:04.975Z,5.27
2018-07-11T17:48:44.661Z,5.70
2018-07-11T17:51:26.681Z,5.90
2018-07-11T17:53:57.349Z,5.60
2018-07-11T17:56:36.298Z,6.73
2018-07-11T17:59:05.372Z,6.33
2018-07-11T18:01:42.182Z,5.83
2018-07-11T18:05:23.807Z,5.40
2018-07-11T18:07:53.181Z,6.03
2018-07-11T18:10:32.328Z,9.30
2018-07-11T18:14:13.162Z,6.50
2018-07-11T18:16:50.091Z,6.10
2018-07-11T18:19:30.143Z,6.33
2018-07-11T18:23:06.677Z,6.10
2018-07-11T18:27:48.093Z,5.57
2018-07-11T18:30:43.437Z,5.63
2018-07-11T18:34:24.841Z,6.10
2018-07-11T18:37:07.778Z,6.37
2018-07-11T18:39:48.197Z,6.20
2018-07-11T18:42:44.000Z,5.97
2018-07-11T18:45:49.977Z,6.73
2018-07-11T18:48:30.801Z,6.70
2018-07-11T18:51:15.366Z,8.17
2018-07-11T18:53:52.393Z,6.00
2018-07-11T18:56:43.184Z,5.83
2018-07-11T18:59:23.239Z,6.00
2018-07-11T19:02:03.663Z,5.40
2018-07-11T19:04:45.291Z,6.23
2018-07-11T19:08:24.038Z,7.93
2018-07-11T19:13:06.041Z,6.67
2018-07-11T19:15:43.458Z,5.43
2018-07-11T19:18:44.151Z,6.37
2018-07-11T19:21:17.464Z,6.03
2018-07-11T19:24:06.039Z,6.50
2018-07-11T19:26:54.728Z,6.07
2018-07-11T19:29:37.989Z,7.07
2018-07-11T19:34:55.424Z,6.40
2018-07-11T19:37:36.605Z,6.60
2018-07-11T19:40:15.017Z,5.93
2018-07-11T19:42:55.365Z,6.90
2018-07-11T19:45:32.659Z,7.00
2018-07-11T19:48:27.325Z,10.20
2018-07-11T19:51:07.801Z,6.47
2018-07-11T19:53:50.728Z,6.80
2018-07-11T19:56:26.846Z,7.10
2018-07-11T19:58:56.445Z,6.83
2018-07-11T20:01:24.990Z,6.00
2018-07-11T20:03:53.863Z,6.13
2018-07-11T20:06:22.870Z,6.47
2018-07-11T20:08:52.294Z,7.40
2018-07-11T20:11:21.874Z,6.87
2018-07-11T20:13:51.700Z,7.67
2018-07-11T20:16:20.717Z,7.50
2018-07-11T20:18:50.272Z,7.90
2018-07-11T20:21:19.279Z,9.10
2018-07-11T20:23:48.789Z,8.27
2018-07-11T20:26:18.064Z,8.43
2018-07-11T20:28:46.886Z,9.33
2018-07-11T20:31:16.114Z,9.23
2018-07-11T20:33:44.630Z,8.50
2018-07-11T20:36:13.271Z,8.07
2018-07-11T20:38:43.132Z,8.10
2018-07-11T20:41:11.665Z,8.03
2018-07-11T20:43:40.791Z,11.67
2018-07-11T20:46:10.421Z,8.00
2018-07-11T20:48:40.045Z,8.10
2018-07-11T20:51:10.076Z,11.93
2018-07-11T20:53:38.845Z,8.80
2018-07-11T20:56:07.722Z,8.87
2018-07-11T20:58:47.311Z,12.17
2018-07-11T21:01:27.494Z,8.40
2018-07-11T21:04:15.191Z,9.10
2018-07-11T21:07:22.558Z,9.53
2018-07-11T21:10:06.157Z,9.73
2018-07-11T21:13:17.125Z,9.07
2018-07-11T21:16:09.112Z,9.93
2018-07-11T21:18:49.683Z,9.07
2018-07-11T21:21:19.423Z,9.00
2018-07-11T21:23:48.166Z,9.50
2018-07-11T21:26:17.784Z,9.47
2018-07-11T21:28:46.247Z,8.80
2018-07-11T21:31:15.610Z,9.17
2018-07-11T21:33:44.782Z,9.50
2018-07-11T21:36:13.861Z,9.33
2018-07-11T21:38:44.690Z,12.97
2018-07-11T21:41:14.250Z,9.23
2018-07-11T21:43:44.047Z,9.33
2018-07-11T21:46:12.857Z,8.97
2018-07-11T21:48:41.762Z,9.10
2018-07-11T21:51:10.564Z,9.00
2018-07-11T21:53:39.818Z,12.57
